Time;durP1;ratioP1;P1;durP2;ratioP2;P2;SDS_P1;SDS_P2;PMS_P1;PMS_P2;Temp;Humidity;BMP_temperature;BMP_pressure;BME280_temperature;BME280_humidity;BME280_pressure;Samples;Min_cycle;Max_cycle;Signal;HPM_P1;HPM_P2
2022/04/09 00:01:17;;;;;;;2.00;1.17;;;;;;;9.96;60.79;93218.09;5081033;28;20040;-75
2022/04/09 00:03:43;;;;;;;5.43;1.55;;;;;;;10.06;61.38;93238.72;5110040;28;20054;-75
2022/04/09 00:06:08;;;;;;;1.10;0.95;;;;;;;9.98;61.40;93234.31;5101903;28;20036;-75
2022/04/09 00:08:34;;;;;;;2.08;1.20;;;;;;;10.01;60.12;93228.41;5103576;28;20047;-76
2022/04/09 00:11:00;;;;;;;3.47;1.25;;;;;;;10.36;58.58;93230.78;5073471;28;20754;-79
2022/04/09 00:13:25;;;;;;;3.65;1.30;;;;;;;10.61;58.36;93244.00;5072682;28;20119;-76
2022/04/09 00:15:51;;;;;;;2.30;1.20;;;;;;;10.74;57.86;93235.81;5077105;28;20043;-76
2022/04/09 00:18:17;;;;;;;3.63;1.30;;;;;;;10.79;56.95;93242.75;5105262;28;20036;-76
2022/04/09 00:20:42;;;;;;;3.38;1.20;;;;;;;10.92;57.31;93236.41;5098493;28;20036;-76
2022/04/09 00:23:10;;;;;;;5.63;1.77;;;;;;;11.00;57.54;93257.69;5074709;28;20454;-76
2022/04/09 00:25:40;;;;;;;4.38;1.25;;;;;;;11.12;57.04;93265.59;5095988;28;20535;-77
2022/04/09 00:28:06;;;;;;;2.38;1.13;;;;;;;11.02;57.64;93266.00;5103137;28;20118;-74
2022/04/09 00:30:32;;;;;;;3.25;1.17;;;;;;;11.14;57.03;93263.41;5099816;28;20162;-75
2022/04/09 00:32:58;;;;;;;3.78;1.15;;;;;;;11.12;59.00;93275.34;5091791;28;20097;-74
2022/04/09 00:35:23;;;;;;;3.47;1.10;;;;;;;11.11;59.38;93290.38;5094820;28;20043;-74
2022/04/09 00:37:49;;;;;;;1.20;1.10;;;;;;;11.10;60.64;93312.53;5096838;28;20401;-75
2022/04/09 00:40:18;;;;;;;4.25;1.05;;;;;;;11.07;61.70;93321.09;5072604;28;20764;-74
2022/04/09 00:42:45;;;;;;;2.30;1.00;;;;;;;10.97;62.97;93330.16;5072088;28;20043;-74
2022/04/09 00:45:11;;;;;;;2.95;1.35;;;;;;;10.83;63.95;93327.81;5092938;28;20456;-74
2022/04/09 00:47:37;;;;;;;2.00;1.20;;;;;;;10.78;65.67;93330.66;5095490;28;20458;-75
2022/04/09 00:50:09;;;;;;;4.32;1.40;;;;;;;10.65;67.12;93358.00;5093443;28;20093;-76
2022/04/09 00:52:38;;;;;;;2.95;1.17;;;;;;;10.41;71.18;93369.91;5095754;28;20048;-76
2022/04/09 00:55:05;;;;;;;4.03;1.52;;;;;;;10.19;73.14;93363.84;5100529;28;20039;-76
2022/04/09 00:57:35;;;;;;;5.80;1.33;;;;;;;10.00;76.47;93395.81;5098853;28;20115;-75
2022/04/09 01:00:09;;;;;;;3.30;1.48;;;;;;;9.74;79.77;93416.94;5076550;28;20044;-75
2022/04/09 01:02:38;;;;;;;2.67;1.50;;;;;;;9.41;84.85;93435.09;5097760;28;20494;-75
2022/04/09 01:05:05;;;;;;;2.55;1.27;;;;;;;9.13;87.33;93425.72;5075176;28;20286;-74
2022/04/09 01:07:32;;;;;;;4.50;1.40;;;;;;;8.99;86.61;93430.34;5097490;28;20040;-74
2022/04/09 01:09:58;;;;;;;7.45;1.20;;;;;;;8.93;86.51;93408.00;5108756;27;20036;-75
2022/04/09 01:12:24;;;;;;;3.65;1.63;;;;;;;8.90;86.73;93421.75;5087228;28;20048;-74
2022/04/09 01:14:50;;;;;;;2.08;1.10;;;;;;;8.87;86.37;93427.59;5103109;28;20040;-74
2022/04/09 01:17:15;;;;;;;3.05;1.30;;;;;;;8.91;84.98;93439.03;5094756;28;20398;-75
2022/04/09 01:19:41;;;;;;;2.63;1.00;;;;;;;8.92;84.10;93461.53;5096892;28;20044;-75
2022/04/09 01:22:06;;;;;;;3.10;0.60;;;;;;;8.10;87.81;93559.69;5078644;28;20036;-74
2022/04/09 01:24:32;;;;;;;4.70;0.57;;;;;;;7.01;92.91;93547.56;5080368;28;20042;-74
2022/04/09 01:26:58;;;;;;;3.45;0.90;;;;;;;6.62;96.08;93561.94;5092047;28;20039;-74
2022/04/09 01:29:23;;;;;;;2.10;0.45;;;;;;;6.34;99.64;93582.84;5127801;27;20043;-74
2022/04/09 01:31:49;;;;;;;4.07;0.80;;;;;;;6.23;100.00;93597.16;5121363;27;20035;-75
2022/04/09 01:34:14;;;;;;;1.05;0.60;;;;;;;6.06;100.00;93603.72;5109435;28;20161;-75
2022/04/09 01:36:40;;;;;;;0.50;0.50;;;;;;;5.84;99.85;93600.91;5093016;28;20101;-75
2022/04/09 01:39:05;;;;;;;3.17;0.57;;;;;;;5.77;100.00;93616.16;5089858;28;20044;-75
2022/04/09 01:41:31;;;;;;;0.30;0.30;;;;;;;5.60;100.00;93625.28;5094081;28;20035;-73
2022/04/09 01:43:56;;;;;;;2.55;0.50;;;;;;;5.51;100.00;93629.59;5095010;28;20043;-73
2022/04/09 01:46:22;;;;;;;0.35;0.35;;;;;;;5.35;100.00;93645.44;5107944;28;20042;-72
2022/04/09 01:48:48;;;;;;;1.58;0.70;;;;;;;5.32;100.00;93651.25;5114183;27;20040;-74
2022/04/09 01:51:13;;;;;;;2.17;0.30;;;;;;;5.20;100.00;93656.09;5094017;28;20040;-74
2022/04/09 01:53:39;;;;;;;0.75;0.40;;;;;;;5.05;100.00;93674.53;5102126;28;20035;-73
2022/04/09 01:56:05;;;;;;;1.55;0.20;;;;;;;5.08;100.00;93684.41;5094743;28;20097;-73
2022/04/09 01:58:30;;;;;;;0.73;0.28;;;;;;;4.97;100.00;93679.31;5104958;28;20520;-74
2022/04/09 02:00:59;;;;;;;0.30;0.17;;;;;;;4.81;100.00;93680.53;5094105;28;20039;-74
2022/04/09 02:03:27;;;;;;;0.57;0.35;;;;;;;4.67;100.00;93696.84;5095192;28;20047;-74
2022/04/09 02:05:53;;;;;;;0.45;0.40;;;;;;;4.61;100.00;93718.78;5083181;28;20063;-74
2022/04/09 02:08:19;;;;;;;0.90;0.80;;;;;;;4.49;100.00;93742.56;5103088;28;20074;-73
2022/04/09 02:10:45;;;;;;;0.30;0.30;;;;;;;4.05;100.00;93769.50;5096202;28;20097;-73
2022/04/09 02:13:13;;;;;;;0.40;0.40;;;;;;;3.62;100.00;93806.41;5107008;28;20466;-72
2022/04/09 02:15:39;;;;;;;0.75;0.65;;;;;;;3.45;100.00;93808.56;5098664;28;20409;-73
2022/04/09 02:18:05;;;;;;;0.50;0.50;;;;;;;3.20;100.00;93819.81;5101831;28;20047;-73
2022/04/09 02:20:32;;;;;;;0.60;0.60;;;;;;;2.98;100.00;93856.50;5091040;28;20416;-73
2022/04/09 02:22:57;;;;;;;1.23;0.60;;;;;;;2.75;100.00;93869.00;5099667;28;20044;-75
2022/04/09 02:25:23;;;;;;;0.40;0.40;;;;;;;2.19;100.00;93886.06;5087864;28;20036;-74
2022/04/09 02:27:48;;;;;;;0.30;0.30;;;;;;;1.88;100.00;93898.94;5088918;28;20032;-75
2022/04/09 02:30:14;;;;;;;0.77;0.77;;;;;;;1.69;100.00;93915.97;5093299;28;20500;-74
2022/04/09 02:32:45;;;;;;;0.75;0.75;;;;;;;1.43;100.00;93913.25;5089925;28;20044;-74
2022/04/09 02:35:11;;;;;;;0.65;0.65;;;;;;;1.11;100.00;93916.69;5088831;28;20032;-74
2022/04/09 02:37:38;;;;;;;0.70;0.70;;;;;;;1.04;100.00;93936.84;5088627;28;20047;-74
2022/04/09 02:40:04;;;;;;;2.85;1.10;;;;;;;0.94;100.00;93960.09;5072149;28;20490;-74
2022/04/09 02:42:30;;;;;;;1.40;1.30;;;;;;;0.84;100.00;93963.38;5086535;28;20067;-74
2022/04/09 02:44:55;;;;;;;1.95;1.50;;;;;;;0.76;100.00;93977.56;5089348;28;20497;-74
2022/04/09 02:47:21;;;;;;;2.47;1.60;;;;;;;0.90;100.00;93997.88;5085483;28;20047;-74
2022/04/09 02:49:47;;;;;;;2.83;1.60;;;;;;;0.83;100.00;94016.19;5085262;28;20040;-74
2022/04/09 02:52:12;;;;;;;3.50;1.85;;;;;;;0.93;100.00;94044.00;5099395;28;20179;-75
2022/04/09 02:54:38;;;;;;;5.40;1.73;;;;;;;0.86;100.00;94044.97;5093524;28;20542;-74
2022/04/09 02:57:04;;;;;;;2.80;1.95;;;;;;;0.81;100.00;94062.28;5078148;28;20040;-75
2022/04/09 02:59:29;;;;;;;1.95;1.73;;;;;;;0.81;100.00;94095.94;5071493;28;20515;-74
2022/04/09 03:01:55;;;;;;;2.38;1.98;;;;;;;0.83;100.00;94110.22;5084699;28;20047;-74
2022/04/09 03:04:20;;;;;;;2.65;1.98;;;;;;;0.88;100.00;94119.03;5091330;28;20043;-74
2022/04/09 03:06:46;;;;;;;3.22;2.00;;;;;;;0.91;100.00;94139.31;5093636;28;20047;-74
2022/04/09 03:09:11;;;;;;;2.25;1.80;;;;;;;0.77;100.00;94155.19;5112531;28;20086;-74
2022/04/09 03:11:38;;;;;;;2.35;1.80;;;;;;;0.76;100.00;94158.81;5103357;27;20445;-74
2022/04/09 03:14:03;;;;;;;2.45;2.00;;;;;;;0.80;100.00;94159.88;5083409;28;20044;-74
2022/04/09 03:16:30;;;;;;;3.95;2.00;;;;;;;0.78;100.00;94181.88;5100012;28;20117;-75
2022/04/09 03:18:55;;;;;;;3.38;2.20;;;;;;;0.80;100.00;94193.53;5090171;28;20067;-75
2022/04/09 03:21:20;;;;;;;2.95;2.30;;;;;;;0.73;100.00;94200.72;5096770;28;20035;-75
2022/04/09 03:23:47;;;;;;;6.63;2.60;;;;;;;0.81;100.00;94197.72;5104340;28;20417;-74
2022/04/09 03:26:12;;;;;;;3.47;1.80;;;;;;;0.73;100.00;94200.72;5091571;28;20114;-74
2022/04/09 03:28:38;;;;;;;4.13;2.60;;;;;;;0.73;100.00;94213.66;5090954;28;20157;-75
2022/04/09 03:31:04;;;;;;;4.65;2.45;;;;;;;0.68;100.00;94218.78;5108593;28;20055;-74
2022/04/09 03:33:31;;;;;;;3.65;2.42;;;;;;;0.56;100.00;94241.38;5112456;28;20107;-75
2022/04/09 03:35:57;;;;;;;8.73;2.90;;;;;;;0.52;100.00;94251.44;5101017;28;20043;-74
2022/04/09 03:38:22;;;;;;;4.75;3.10;;;;;;;0.47;100.00;94267.66;5074485;28;20198;-74
2022/04/09 03:40:48;;;;;;;5.22;3.10;;;;;;;0.51;100.00;94286.88;5102889;28;20409;-74
2022/04/09 03:43:13;;;;;;;5.50;3.42;;;;;;;0.47;100.00;94301.31;5109778;27;20063;-75
2022/04/09 03:45:39;;;;;;;5.40;3.25;;;;;;;0.42;100.00;94318.59;5086905;28;20040;-73
2022/04/09 03:48:05;;;;;;;4.97;3.10;;;;;;;0.43;100.00;94336.47;5104556;28;20075;-71
2022/04/09 03:50:31;;;;;;;6.35;3.63;;;;;;;0.48;100.00;94349.47;5100779;28;20081;-71
2022/04/09 03:52:57;;;;;;;5.63;3.40;;;;;;;0.54;100.00;94341.81;5091310;28;20078;-72
2022/04/09 03:55:22;;;;;;;4.68;2.90;;;;;;;0.60;100.00;94346.81;5091007;28;20032;-71
2022/04/09 03:57:48;;;;;;;7.88;4.18;;;;;;;0.63;100.00;94350.75;5108353;28;20077;-71
2022/04/09 04:00:14;;;;;;;7.45;4.35;;;;;;;0.64;100.00;94347.16;5097353;28;20031;-71
2022/04/09 04:02:40;;;;;;;6.10;3.72;;;;;;;0.63;100.00;94340.41;5101664;28;20127;-71
2022/04/09 04:05:07;;;;;;;7.15;4.50;;;;;;;0.67;100.00;94357.03;5089513;28;20039;-71
2022/04/09 04:07:33;;;;;;;9.05;4.32;;;;;;;0.66;100.00;94355.44;5106762;28;20044;-72
2022/04/09 04:10:10;;;;;;;7.88;4.65;;;;;;;0.69;100.00;94380.91;5091346;28;20043;-71
2022/04/09 04:12:36;;;;;;;9.50;4.90;;;;;;;0.61;100.00;94394.22;5102408;28;20036;-71
2022/04/09 04:15:04;;;;;;;9.07;4.90;;;;;;;0.67;100.00;94388.88;5091117;28;20079;-71
2022/04/09 04:17:43;;;;;;;9.70;5.32;;;;;;;0.68;100.00;94411.19;5092839;28;20036;-72
2022/04/09 04:20:10;;;;;;;10.73;5.32;;;;;;;0.79;100.00;94427.69;5104230;28;20047;-72
2022/04/09 04:22:36;;;;;;;10.32;5.13;;;;;;;0.84;100.00;94430.34;5092606;28;20048;-72
2022/04/09 04:25:03;;;;;;;9.90;5.18;;;;;;;0.76;100.00;94442.88;5110357;28;20035;-71
2022/04/09 04:27:29;;;;;;;10.30;5.95;;;;;;;0.81;100.00;94441.16;5094093;28;20414;-72
2022/04/09 04:29:59;;;;;;;11.43;4.32;;;;;;;0.81;100.00;94441.16;5073032;28;20056;-72
2022/04/09 04:32:24;;;;;;;12.65;5.90;;;;;;;0.81;100.00;94456.72;5102916;27;20093;-72
2022/04/09 04:34:50;;;;;;;10.75;5.55;;;;;;;0.85;100.00;94465.59;5098463;28;20043;-72
2022/04/09 04:37:15;;;;;;;11.35;6.20;;;;;;;0.84;100.00;94471.00;5090206;28;20044;-72
2022/04/09 04:39:40;;;;;;;10.07;4.97;;;;;;;0.75;100.00;94473.19;5094551;28;20067;-72
2022/04/09 04:42:07;;;;;;;12.70;5.13;;;;;;;0.81;100.00;94487.78;5110014;28;20047;-73
2022/04/09 04:44:33;;;;;;;8.35;4.82;;;;;;;0.74;100.00;94481.97;5084611;28;20031;-72
2022/04/09 04:46:58;;;;;;;8.90;4.45;;;;;;;0.86;100.00;94494.84;5090564;28;20131;-73
2022/04/09 04:49:24;;;;;;;9.13;4.70;;;;;;;0.85;100.00;94499.25;5090451;28;20072;-73
2022/04/09 04:51:50;;;;;;;10.63;4.82;;;;;;;0.77;100.00;94494.44;5090035;28;20118;-72
2022/04/09 04:54:15;;;;;;;11.07;5.15;;;;;;;0.76;100.00;94494.69;5096120;28;20037;-72
2022/04/09 04:56:42;;;;;;;11.98;5.32;;;;;;;0.76;100.00;94516.22;5100413;28;20040;-73
2022/04/09 04:59:08;;;;;;;10.30;5.15;;;;;;;0.78;100.00;94524.50;5085320;28;20043;-72
2022/04/09 05:01:34;;;;;;;13.20;5.80;;;;;;;0.85;100.00;94525.16;5096237;28;20058;-72
2022/04/09 05:04:01;;;;;;;13.52;5.35;;;;;;;0.86;100.00;94537.09;5098864;28;20071;-72
2022/04/09 05:06:26;;;;;;;14.48;5.78;;;;;;;0.91;100.00;94558.94;5089934;28;20261;-72
2022/04/09 05:08:52;;;;;;;12.43;6.10;;;;;;;0.89;100.00;94571.31;5090077;28;20089;-72
2022/04/09 05:11:17;;;;;;;13.18;6.20;;;;;;;0.95;100.00;94591.13;5097189;28;20044;-73
2022/04/09 05:13:43;;;;;;;12.18;6.28;;;;;;;0.88;100.00;94595.66;5097667;28;20047;-72
2022/04/09 05:16:08;;;;;;;9.30;4.93;;;;;;;0.89;100.00;94607.59;5091416;28;20036;-72
2022/04/09 05:18:35;;;;;;;13.32;5.05;;;;;;;0.92;100.00;94617.47;5109790;28;20039;-73
2022/04/09 05:21:00;;;;;;;12.38;6.22;;;;;;;0.84;100.00;94624.59;5090921;28;20047;-73
2022/04/09 05:23:25;;;;;;;14.38;6.22;;;;;;;0.85;100.00;94641.72;5101899;28;21974;-72
2022/04/09 05:25:51;;;;;;;14.35;5.60;;;;;;;0.80;100.00;94635.66;5090842;28;20488;-73
2022/04/09 05:28:17;;;;;;;13.30;5.82;;;;;;;0.74;100.00;94642.53;5089679;28;20032;-72
2022/04/09 05:30:44;;;;;;;15.07;5.57;;;;;;;0.81;100.00;94648.38;5088837;28;20040;-72
2022/04/09 05:33:10;;;;;;;12.95;6.20;;;;;;;0.85;100.00;94652.09;5089089;28;20069;-72
2022/04/09 05:35:35;;;;;;;11.63;5.80;;;;;;;0.95;100.00;94659.28;5091215;28;20043;-72
2022/04/09 05:38:00;;;;;;;18.10;6.28;;;;;;;0.89;100.00;94659.41;5102214;28;20264;-72
2022/04/09 05:40:26;;;;;;;13.05;6.35;;;;;;;0.88;100.00;94671.56;5104156;28;20043;-72
2022/04/09 05:42:52;;;;;;;13.93;6.35;;;;;;;0.94;100.00;94680.22;5080069;28;20050;-72
2022/04/09 05:45:17;;;;;;;13.90;6.63;;;;;;;0.86;100.00;94692.53;5099514;28;20118;-72
2022/04/09 05:47:45;;;;;;;12.30;5.90;;;;;;;0.93;100.00;94691.59;5089440;28;20054;-72
2022/04/09 05:50:12;;;;;;;14.63;6.68;;;;;;;0.93;100.00;94701.97;5085078;28;20047;-72
2022/04/09 05:52:38;;;;;;;15.93;7.50;;;;;;;0.84;100.00;94704.91;5093802;28;20040;-72
2022/04/09 05:55:05;;;;;;;16.27;6.68;;;;;;;0.90;100.00;94717.97;5074040;28;20032;-72
2022/04/09 05:57:31;;;;;;;18.73;8.10;;;;;;;0.79;100.00;94722.94;5088973;28;20398;-72
2022/04/09 05:59:57;;;;;;;17.45;7.57;;;;;;;0.81;100.00;94731.25;5091933;28;20040;-72
2022/04/09 06:02:23;;;;;;;18.50;8.18;;;;;;;0.76;100.00;94728.56;5097609;28;20040;-72
2022/04/09 06:04:48;;;;;;;19.95;8.10;;;;;;;0.79;100.00;94728.13;5099787;28;20408;-72
2022/04/09 06:07:14;;;;;;;18.92;8.52;;;;;;;0.77;100.00;94724.94;5089095;28;20181;-73
2022/04/09 06:09:41;;;;;;;18.35;7.57;;;;;;;0.74;100.00;94738.34;5092090;28;20047;-72
2022/04/09 06:12:08;;;;;;;19.73;9.13;;;;;;;0.70;100.00;94755.34;5082797;28;20123;-72
2022/04/09 06:14:34;;;;;;;17.95;7.95;;;;;;;0.80;100.00;94745.22;5092434;28;20071;-73
2022/04/09 06:17:00;;;;;;;19.02;8.80;;;;;;;0.85;100.00;94762.69;5090308;28;20040;-72
2022/04/09 06:19:27;;;;;;;22.88;9.02;;;;;;;0.96;100.00;94768.88;5102373;28;20054;-75
2022/04/09 06:21:53;;;;;;;22.58;9.82;;;;;;;1.03;100.00;94769.53;5099100;28;20387;-74
2022/04/09 06:24:18;;;;;;;22.98;10.23;;;;;;;1.02;100.00;94768.75;5099787;28;20047;-73
2022/04/09 06:26:44;;;;;;;19.70;9.23;;;;;;;1.16;100.00;94779.66;5099110;28;20040;-73
2022/04/09 06:29:09;;;;;;;23.55;9.60;;;;;;;1.19;100.00;94783.59;5100436;28;20068;-72
2022/04/09 06:31:35;;;;;;;20.67;8.30;;;;;;;1.23;100.00;94776.16;5089263;28;20529;-72
2022/04/09 06:34:00;;;;;;;19.27;9.25;;;;;;;1.13;100.00;94800.84;5094414;28;20039;-72
2022/04/09 06:36:26;;;;;;;20.10;8.57;;;;;;;1.00;100.00;94790.72;5092197;28;20136;-72
2022/04/09 06:38:53;;;;;;;15.98;7.78;;;;;;;1.10;100.00;94788.34;5092980;28;20040;-72
2022/04/09 06:41:18;;;;;;;16.33;8.32;;;;;;;1.18;100.00;94788.00;5091677;28;20036;-73
2022/04/09 06:43:46;;;;;;;16.92;8.23;;;;;;;1.13;100.00;94800.84;5094660;28;20047;-77
2022/04/09 06:46:12;;;;;;;19.38;9.18;;;;;;;1.22;100.00;94814.25;5094861;28;20036;-74
2022/04/09 06:48:38;;;;;;;20.38;8.55;;;;;;;1.21;100.00;94808.28;5099436;28;20047;-76
2022/04/09 06:51:04;;;;;;;22.00;8.82;;;;;;;1.15;100.00;94814.38;5085005;28;20067;-75
2022/04/09 06:53:30;;;;;;;26.10;10.50;;;;;;;1.17;100.00;94820.09;5083959;28;20044;-76
2022/04/09 06:55:55;;;;;;;19.65;9.80;;;;;;;1.16;100.00;94826.31;5106160;27;20508;-75
2022/04/09 06:58:21;;;;;;;18.95;7.97;;;;;;;1.24;100.00;94832.19;5086915;28;20119;-75
2022/04/09 07:00:46;;;;;;;20.20;9.05;;;;;;;1.19;100.00;94825.06;5105027;27;20055;-75
2022/04/09 07:03:13;;;;;;;20.10;9.52;;;;;;;1.16;100.00;94830.69;5101886;27;20040;-78
2022/04/09 07:05:41;;;;;;;20.80;9.00;;;;;;;1.09;100.00;94840.41;5087691;28;20040;-76
2022/04/09 07:08:08;;;;;;;16.17;7.88;;;;;;;1.08;100.00;94839.63;5109998;28;20043;-76
2022/04/09 07:10:36;;;;;;;13.77;7.13;;;;;;;1.07;100.00;94843.22;5090024;28;20051;-76
2022/04/09 07:13:02;;;;;;;20.25;9.30;;;;;;;1.19;100.00;94846.59;5104875;28;20165;-76
2022/04/09 07:15:28;;;;;;;22.75;10.60;;;;;;;1.19;100.00;94851.78;5103092;28;20047;-76
2022/04/09 07:17:55;;;;;;;18.45;8.85;;;;;;;1.19;100.00;94851.78;5075371;28;20677;-75
2022/04/09 07:20:21;;;;;;;18.92;9.43;;;;;;;1.21;100.00;94854.94;5092463;28;20070;-75
2022/04/09 07:22:47;;;;;;;24.77;10.32;;;;;;;1.19;100.00;94859.56;5092066;28;20044;-77
2022/04/09 07:25:13;;;;;;;18.15;9.05;;;;;;;1.24;100.00;94858.09;5091303;28;20690;-77
2022/04/09 07:27:44;;;;;;;23.58;11.10;;;;;;;1.26;100.00;94861.25;5089649;28;20051;-77
2022/04/09 07:30:12;;;;;;;23.85;10.98;;;;;;;1.21;100.00;94864.53;5092949;28;20039;-77
2022/04/09 07:32:38;;;;;;;32.13;11.23;;;;;;;1.24;100.00;94873.66;5112325;28;20069;-78
2022/04/09 07:35:04;;;;;;;21.55;9.15;;;;;;;1.19;100.00;94877.72;5079982;28;20032;-76
2022/04/09 07:37:31;;;;;;;24.80;10.35;;;;;;;1.24;100.00;94884.03;5092518;28;20067;-75
2022/04/09 07:39:57;;;;;;;26.00;9.95;;;;;;;1.27;100.00;94894.72;5109154;27;20506;-75
2022/04/09 07:42:23;;;;;;;19.75;9.13;;;;;;;1.38;100.00;94885.38;5110149;28;20039;-75
2022/04/09 07:44:49;;;;;;;15.63;7.72;;;;;;;1.31;100.00;94895.06;5115680;27;20039;-76
2022/04/09 07:47:15;;;;;;;14.30;7.53;;;;;;;1.23;100.00;94892.81;5101193;28;20101;-79
2022/04/09 07:49:44;;;;;;;22.10;10.20;;;;;;;1.29;100.00;94899.66;5104280;27;20035;-75
2022/04/09 07:52:11;;;;;;;25.05;10.70;;;;;;;1.36;100.00;94903.72;5108631;28;20051;-75
2022/04/09 07:54:37;;;;;;;21.15;9.52;;;;;;;1.49;100.00;94907.88;5097317;28;20048;-75
2022/04/09 07:57:03;;;;;;;23.92;10.57;;;;;;;1.44;100.00;94900.00;5107608;27;20036;-77
2022/04/09 07:59:29;;;;;;;22.92;10.73;;;;;;;1.52;100.00;94902.28;5099510;28;20044;-78
2022/04/09 08:01:54;;;;;;;27.77;10.23;;;;;;;1.78;100.00;94909.78;5113030;28;20050;-75
2022/04/09 08:04:20;;;;;;;24.48;11.88;;;;;;;1.90;100.00;94913.94;5093863;28;20043;-77
2022/04/09 08:06:45;;;;;;;25.52;10.70;;;;;;;1.94;100.00;94919.47;5094319;27;20032;-76
2022/04/09 08:09:11;;;;;;;31.52;12.68;;;;;;;2.06;100.00;94916.84;5111243;28;20043;-75
2022/04/09 08:11:36;;;;;;;27.80;12.95;;;;;;;2.10;100.00;94925.75;5095764;28;20127;-77
2022/04/09 08:14:02;;;;;;;27.33;12.52;;;;;;;2.12;100.00;94921.09;5074928;28;20043;-76
2022/04/09 08:16:28;;;;;;;30.25;13.07;;;;;;;2.40;100.00;94911.78;5084627;28;20514;-78
2022/04/09 08:18:53;;;;;;;30.58;12.35;;;;;;;2.35;100.00;94919.47;5088843;27;20066;-77
2022/04/09 08:21:19;;;;;;;29.17;12.95;;;;;;;2.32;100.00;94919.91;5115344;27;20039;-75
2022/04/09 08:23:46;;;;;;;27.70;12.60;;;;;;;2.35;100.00;94932.44;5104719;28;20048;-77
2022/04/09 08:26:11;;;;;;;25.00;10.07;;;;;;;2.26;98.66;94926.81;5101421;27;20040;-77
2022/04/09 08:28:37;;;;;;;28.77;11.85;;;;;;;2.11;99.03;94924.72;5092581;28;20040;-75
2022/04/09 08:31:03;;;;;;;28.10;12.23;;;;;;;2.21;99.12;94924.13;5074375;28;20054;-77
2022/04/09 08:33:28;;;;;;;30.75;12.40;;;;;;;2.24;95.70;94944.41;5104350;27;20123;-77
2022/04/09 08:35:54;;;;;;;24.05;11.95;;;;;;;2.19;98.07;94946.94;5109004;28;20043;-76
2022/04/09 08:38:20;;;;;;;28.80;11.57;;;;;;;2.16;97.24;94953.38;5110885;27;20043;-76
2022/04/09 08:40:46;;;;;;;28.38;12.20;;;;;;;2.16;95.43;94948.19;5106092;27;20035;-77
2022/04/09 08:43:12;;;;;;;29.23;12.00;;;;;;;2.14;98.78;94942.44;5105456;28;20039;-77
2022/04/09 08:45:41;;;;;;;29.20;13.15;;;;;;;2.09;95.66;94942.34;5112228;28;20043;-78
2022/04/09 08:48:08;;;;;;;32.45;13.68;;;;;;;2.12;98.63;94947.06;5086304;28;20044;-78
2022/04/09 08:50:37;;;;;;;30.17;13.05;;;;;;;2.24;98.96;94955.63;5110435;28;20579;-77
2022/04/09 08:53:07;;;;;;;31.95;12.25;;;;;;;2.40;96.70;94963.72;5092483;28;20036;-76
2022/04/09 08:55:37;;;;;;;26.02;12.65;;;;;;;2.41;98.07;94952.28;5078503;28;20036;-76
2022/04/09 08:58:05;;;;;;;30.67;12.25;;;;;;;2.52;97.08;94956.66;5110284;28;20044;-76
2022/04/09 09:00:31;;;;;;;27.40;12.30;;;;;;;2.70;97.57;94947.09;5110511;28;20047;-76
2022/04/09 09:02:59;;;;;;;29.30;11.95;;;;;;;2.68;99.60;94941.34;5096168;28;20048;-76
2022/04/09 09:05:34;;;;;;;25.45;11.77;;;;;;;2.97;96.11;94951.72;5090424;28;20040;-75
2022/04/09 09:08:00;;;;;;;33.70;12.52;;;;;;;3.38;93.60;94941.97;5102403;28;20044;-76
2022/04/09 09:10:26;;;;;;;25.55;11.48;;;;;;;3.49;92.74;94954.06;5092557;28;20122;-76
2022/04/09 09:13:06;;;;;;;22.98;10.52;;;;;;;3.54;88.77;94954.16;5104705;28;20401;-79
2022/04/09 09:15:44;;;;;;;18.17;9.00;;;;;;;3.43;83.31;94955.84;5106251;28;20040;-79
2022/04/09 09:18:20;;;;;;;21.63;8.38;;;;;;;3.23;83.81;94971.91;5108958;28;20092;-76
2022/04/09 09:20:54;;;;;;;19.73;8.70;;;;;;;3.26;87.17;94966.22;5115237;28;20051;-83
2022/04/09 09:23:40;;;;;;;18.77;8.10;;;;;;;3.36;83.55;94970.00;5099046;28;20040;-76
2022/04/09 09:26:05;;;;;;;17.95;7.70;;;;;;;3.74;85.03;94968.50;5094349;28;20062;-76
2022/04/09 09:28:33;;;;;;;14.43;6.57;;;;;;;3.70;81.01;94970.00;5112614;28;20093;-76
2022/04/09 09:30:58;;;;;;;14.27;6.70;;;;;;;3.66;78.48;94971.50;5093412;28;20047;-77
2022/04/09 09:33:26;;;;;;;13.05;6.20;;;;;;;3.86;79.34;94984.78;5091622;28;20044;-76
2022/04/09 09:35:54;;;;;;;14.02;5.53;;;;;;;3.85;73.20;94978.03;5092494;28;20043;-77
2022/04/09 09:38:28;;;;;;;11.48;5.82;;;;;;;4.04;77.58;94985.53;5109916;28;20046;-75
2022/04/09 09:40:55;;;;;;;11.13;5.07;;;;;;;3.86;72.95;94974.38;5110838;28;20509;-75
2022/04/09 09:43:22;;;;;;;11.43;5.55;;;;;;;3.87;76.18;94975.19;5110945;28;20040;-76
2022/04/09 09:45:49;;;;;;;13.35;6.93;;;;;;;3.88;76.95;94987.94;5089690;28;20047;-77
2022/04/09 09:48:29;;;;;;;12.30;5.57;;;;;;;3.76;71.16;94989.84;5090787;28;20047;-76
2022/04/09 09:50:59;;;;;;;10.57;5.40;;;;;;;3.62;72.80;94990.19;5073638;28;20196;-76
2022/04/09 09:53:32;;;;;;;9.88;5.65;;;;;;;3.66;76.19;94990.47;5086202;28;20035;-77
2022/04/09 09:55:59;;;;;;;11.35;5.80;;;;;;;3.53;76.32;94985.63;5106298;28;20057;-77
2022/04/09 09:58:27;;;;;;;14.90;6.53;;;;;;;3.70;77.43;94990.81;5094237;28;20051;-76
2022/04/09 10:00:55;;;;;;;16.58;6.72;;;;;;;3.81;74.03;94982.13;5094498;28;20086;-73
2022/04/09 10:03:21;;;;;;;13.00;6.18;;;;;;;3.99;76.46;94996.66;5104133;28;20059;-74
2022/04/09 10:05:48;;;;;;;11.95;5.78;;;;;;;3.81;72.87;94997.75;5092568;28;20501;-76
2022/04/09 10:08:14;;;;;;;10.10;5.57;;;;;;;3.78;75.42;94993.78;5092227;28;20047;-75
2022/04/09 10:10:46;;;;;;;11.30;5.60;;;;;;;3.76;73.08;95001.03;5090578;28;20044;-75
2022/04/09 10:13:15;;;;;;;10.55;6.13;;;;;;;3.70;76.18;94996.00;5090301;28;20047;-77
2022/04/09 10:15:43;;;;;;;17.50;7.10;;;;;;;3.56;77.66;95001.56;5090501;28;20753;-75
2022/04/09 10:18:09;;;;;;;11.73;6.40;;;;;;;3.61;80.76;95009.41;5088719;28;20047;-77
2022/04/09 10:20:35;;;;;;;13.07;6.32;;;;;;;3.66;78.47;95010.53;5094408;28;20556;-76
2022/04/09 10:23:05;;;;;;;18.13;6.85;;;;;;;3.96;79.37;95010.94;5091045;28;20047;-76
2022/04/09 10:25:32;;;;;;;11.13;5.68;;;;;;;4.51;72.30;95011.13;5090349;28;20051;-76
2022/04/09 10:28:02;;;;;;;10.60;6.03;;;;;;;5.70;70.91;95011.22;5109574;28;20074;-76
2022/04/09 10:30:29;;;;;;;9.80;4.45;;;;;;;4.98;67.69;95000.16;5110596;28;20040;-76
2022/04/09 10:32:59;;;;;;;9.75;4.22;;;;;;;5.03;69.16;95002.06;5092286;28;20035;-76
2022/04/09 10:35:38;;;;;;;9.43;4.60;;;;;;;4.90;68.11;95008.44;5101219;28;20044;-76
2022/04/09 10:38:07;;;;;;;11.18;4.78;;;;;;;4.62;66.43;95002.38;5087587;28;20036;-77
2022/04/09 10:40:42;;;;;;;7.93;4.55;;;;;;;4.40;67.24;95009.44;5092279;28;20405;-77
2022/04/09 10:43:08;;;;;;;11.55;5.45;;;;;;;4.42;69.05;95000.34;5094993;28;20051;-75
2022/04/09 10:46:02;;;;;;;9.35;5.18;;;;;;;4.38;69.89;95007.06;5102288;28;20043;-73
2022/04/09 10:48:32;;;;;;;13.85;6.15;;;;;;;4.59;70.05;95004.72;5098531;28;20048;-76
2022/04/09 10:51:11;;;;;;;8.63;5.20;;;;;;;4.70;70.16;95009.00;5095528;28;20039;-75
2022/04/09 10:53:41;;;;;;;10.05;4.93;;;;;;;4.53;69.52;95009.06;5090139;28;20036;-78
2022/04/09 10:56:10;;;;;;;15.75;5.32;;;;;;;4.76;74.66;95017.69;5096571;28;20031;-75
2022/04/09 10:59:04;;;;;;;10.07;5.35;;;;;;;5.20;68.33;95018.38;5101947;28;20048;-77
2022/04/09 11:01:48;;;;;;;13.30;4.78;;;;;;;5.50;65.68;95017.06;5057591;28;20060;-76
2022/04/09 11:04:27;;;;;;;12.90;5.67;;;;;;;5.81;68.55;95011.28;5095364;28;20032;-77
2022/04/09 11:07:22;;;;;;;12.35;5.20;;;;;;;4.89;66.68;95017.28;5092775;28;20036;-77
2022/04/09 11:09:53;;;;;;;10.45;4.32;;;;;;;4.88;69.30;95014.94;5104441;28;20146;-78
2022/04/09 11:12:27;;;;;;;12.63;4.90;;;;;;;4.69;66.30;95015.25;5115377;28;20062;-78
2022/04/09 11:15:09;;;;;;;10.07;4.20;;;;;;;6.40;61.41;95024.19;5106409;28;20127;-78
2022/04/09 11:17:36;;;;;;;9.43;4.50;;;;;;;7.68;61.85;95015.03;5104673;28;20054;-76
2022/04/09 11:20:10;;;;;;;9.52;4.30;;;;;;;7.87;57.32;95009.28;5109751;28;20055;-76
2022/04/09 11:22:43;;;;;;;9.02;4.60;;;;;;;7.77;59.47;95013.50;5109043;28;20566;-75
2022/04/09 11:25:21;;;;;;;8.07;4.13;;;;;;;7.68;59.91;95012.44;5109951;28;20042;-75
2022/04/09 11:27:46;;;;;;;9.25;4.22;;;;;;;6.71;60.74;95011.25;5073548;28;20032;-76
2022/04/09 11:30:12;;;;;;;6.93;4.40;;;;;;;6.15;62.50;95016.22;5084924;28;20051;-75